Portada
METAR-TAF:

METAR-TAF

Aeropuertos :

Christchurch, Nueva Zelanda

Aeropuerto Internacional de Christchurch

latitud: 43-29S, longitud: 172-33E, altitud: 38 m

Observación

El informe se hizo hace 33 minutos, a las 05:30 UTC
Viento 5 kt del oeste, variando entre sur-suroeste y norte-noroeste
Temperatura 16°C
Humedad 45%
Presión 994 hPa
Visibilidad 10 km o más

METAR: NZCH 170530Z AUTO 26005KT 210V340 9999 FEW075/// 16/04 Q0994 BECMG 01010KT

Hora: 18:03 (06:03 UTC)

Pronóstico

El informe se hizo hace 6 horas y 59 minutos, a las 23:04 UTC
Pronóstico válido del 17 a las 00 UTC al 18 a las 00 UTC
Viento 15 kt del norte-noroeste con ráfagas de 25 kt
Visibilidad 10 km o más
sin nubes por debajo de 1500 m y sin presencia de cumulonimbus.
Evolucionando progresivamente
del 17 a las 02 UTC al 17 a las 04 UTC
Viento 10 kt del norte

TAF: NZCH 162304Z 1700/1800 33015G25KT CAVOK BECMG 1702/1704 01010KT

Observaciones y pronósticos meteorológicos de más de 4000 aeropuertos (mensajes METAR y TAF).

Los puntos amarillos y rojos representan las estaciones disponibles.

Ponga el ratón en el punto deseado para ver el nombre de la estación.

Haga clic para ver las observaciones y los pronósticos meteorológicos.

Para cambiar el mapa : haga clic en los botones verdes con una cruz de color negro para hacer un zoom, en el botón verde con un guión para alejar o en las flechas verdes para mapas adyacentes.


METAR-TAF: